sensor_id;sensor_type;location;lat;lon;timestamp;P1;P4;P2;P0;N10;N4;N25;N1;N05;TS
67098;SPS30;54288;53.046;5.668;2023-05-29T00:01:21;4.98;4.73;3.48;1.83;14.87;14.83;14.51;12.91;9.36;0.96
67098;SPS30;54288;53.046;5.668;2023-05-29T00:03:49;4.68;4.45;3.27;1.72;14.01;13.97;13.66;12.16;8.82;0.95
67098;SPS30;54288;53.046;5.668;2023-05-29T00:06:16;4.93;4.69;3.45;1.81;14.70;14.66;14.34;12.76;9.24;0.95
67098;SPS30;54288;53.046;5.668;2023-05-29T00:08:43;5.22;4.95;3.62;1.87;15.17;15.12;14.78;13.08;9.37;0.97
67098;SPS30;54288;53.046;5.668;2023-05-29T00:11:09;4.92;4.67;3.40;1.73;14.06;14.01;13.69;12.06;8.58;0.97
67098;SPS30;54288;53.046;5.668;2023-05-29T00:13:34;4.71;4.47;3.25;1.66;13.51;13.46;13.15;11.61;8.27;0.97
67098;SPS30;54288;53.046;5.668;2023-05-29T00:16:00;5.51;5.23;3.81;1.95;15.84;15.79;15.42;13.61;9.71;0.96
67098;SPS30;54288;53.046;5.668;2023-05-29T00:18:26;5.51;5.22;3.78;1.90;15.44;15.39;15.02;13.19;9.30;0.96
67098;SPS30;54288;53.046;5.668;2023-05-29T00:20:52;5.34;5.06;3.68;1.86;15.16;15.11;14.76;13.00;9.23;0.95
67098;SPS30;54288;53.046;5.668;2023-05-29T00:23:18;5.46;5.18;3.78;1.94;15.80;15.75;15.39;13.60;9.73;0.95
67098;SPS30;54288;53.046;5.668;2023-05-29T00:25:44;4.94;4.68;3.41;1.73;14.10;14.05;13.73;12.10;8.61;0.96
67098;SPS30;54288;53.046;5.668;2023-05-29T00:28:10;5.85;5.54;4.02;2.03;16.53;16.48;16.09;14.16;10.03;0.97
67098;SPS30;54288;53.046;5.668;2023-05-29T00:30:37;4.59;4.36;3.18;1.62;13.19;13.15;12.85;11.34;8.08;0.94
67098;SPS30;54288;53.046;5.668;2023-05-29T00:33:02;5.17;4.91;3.59;1.85;15.08;15.03;14.69;13.01;9.34;0.94
67098;SPS30;54288;53.046;5.668;2023-05-29T00:35:28;5.29;5.02;3.65;1.85;15.09;15.04;14.69;12.95;9.20;0.95
67098;SPS30;54288;53.046;5.668;2023-05-29T00:37:55;5.43;5.14;3.71;1.83;14.88;14.83;14.46;12.63;8.82;0.95
67098;SPS30;54288;53.046;5.668;2023-05-29T00:40:20;5.00;4.74;3.43;1.72;14.00;13.95;13.62;11.95;8.43;0.95
67098;SPS30;54288;53.046;5.668;2023-05-29T00:42:47;5.43;5.15;3.73;1.87;15.22;15.17;14.81;13.00;9.17;0.94
67098;SPS30;54288;53.046;5.668;2023-05-29T00:45:13;5.24;4.96;3.59;1.80;14.63;14.58;14.23;12.49;8.80;0.94
67098;SPS30;54288;53.046;5.668;2023-05-29T00:47:40;4.81;4.56;3.30;1.65;13.42;13.37;13.05;11.45;8.06;0.96
67098;SPS30;54288;53.046;5.668;2023-05-29T00:50:08;5.38;5.10;3.68;1.82;14.85;14.80;14.44;12.63;8.85;0.97
67098;SPS30;54288;53.046;5.668;2023-05-29T00:52:36;5.38;5.10;3.67;1.80;14.63;14.58;14.22;12.39;8.62;0.98
67098;SPS30;54288;53.046;5.668;2023-05-29T00:55:03;5.57;5.28;3.82;1.91;15.57;15.52;15.14;13.29;9.36;0.95
67098;SPS30;54288;53.046;5.668;2023-05-29T00:57:30;5.47;5.19;3.78;1.93;15.72;15.67;15.31;13.52;9.65;0.94
67098;SPS30;54288;53.046;5.668;2023-05-29T01:00:02;5.12;4.86;3.56;1.84;14.97;14.92;14.59;12.93;9.29;0.92
67098;SPS30;54288;53.046;5.668;2023-05-29T01:02:42;4.77;4.53;3.33;1.75;14.21;14.17;13.86;12.33;8.93;0.90
67098;SPS30;54288;53.046;5.668;2023-05-29T01:05:10;5.83;5.53;4.04;2.08;16.91;16.86;16.48;14.58;10.44;0.93
67098;SPS30;54288;53.046;5.668;2023-05-29T01:07:37;5.50;5.22;3.80;1.94;15.78;15.73;15.37;13.56;9.67;0.93
67098;SPS30;54288;53.046;5.668;2023-05-29T01:10:04;5.62;5.33;3.89;2.00;16.24;16.19;15.82;13.98;10.00;0.94
67098;SPS30;54288;53.046;5.668;2023-05-29T01:20:52;4.90;4.66;3.46;1.87;15.16;15.12;14.81;13.27;9.76;0.91
67098;SPS30;54288;53.046;5.668;2023-05-29T01:26:11;4.83;4.60;3.42;1.87;15.15;15.11;14.81;13.30;9.83;0.91
67098;SPS30;54288;53.046;5.668;2023-05-29T01:29:03;5.08;4.83;3.57;1.91;15.55;15.50;15.18;13.57;9.93;0.92
67098;SPS30;54288;53.046;5.668;2023-05-29T01:31:33;4.93;4.69;3.49;1.89;15.35;15.30;15.00;13.46;9.91;0.89
67098;SPS30;54288;53.046;5.668;2023-05-29T01:34:01;4.57;4.35;3.24;1.77;14.34;14.30;14.02;12.60;9.31;0.89
67098;SPS30;54288;53.046;5.668;2023-05-29T01:36:27;4.67;4.44;3.32;1.83;14.86;14.81;14.53;13.09;9.72;0.88
67098;SPS30;54288;53.046;5.668;2023-05-29T01:38:54;5.04;4.80;3.59;1.99;16.10;16.06;15.75;14.20;10.56;0.87
67098;SPS30;54288;53.046;5.668;2023-05-29T01:41:23;4.43;4.23;3.20;1.83;14.83;14.80;14.53;13.22;9.98;0.85
67098;SPS30;54288;53.046;5.668;2023-05-29T01:43:49;4.69;4.47;3.37;1.91;15.46;15.42;15.14;13.73;10.32;0.87
67098;SPS30;54288;53.046;5.668;2023-05-29T01:46:18;4.59;4.38;3.29;1.84;14.94;14.90;14.62;13.23;9.90;0.87
67098;SPS30;54288;53.046;5.668;2023-05-29T01:48:46;4.76;4.53;3.40;1.88;15.28;15.24;14.95;13.49;10.05;0.88
67098;SPS30;54288;53.046;5.668;2023-05-29T01:51:12;4.33;4.12;3.09;1.71;13.85;13.81;13.55;12.22;9.09;0.88
67098;SPS30;54288;53.046;5.668;2023-05-29T01:53:38;5.02;4.78;3.56;1.95;15.78;15.74;15.43;13.87;10.25;0.89
67098;SPS30;54288;53.046;5.668;2023-05-29T01:56:06;5.04;4.80;3.59;1.98;16.03;15.99;15.68;14.12;10.48;0.87
67098;SPS30;54288;53.046;5.668;2023-05-29T01:58:36;4.60;4.38;3.31;1.88;15.26;15.22;14.95;13.58;10.23;0.85
67098;SPS30;54288;53.046;5.668;2023-05-29T02:01:05;4.52;4.31;3.26;1.85;14.98;14.95;14.67;13.32;10.04;0.85
67098;SPS30;54288;53.046;5.668;2023-05-29T02:03:32;4.55;4.33;3.28;1.87;15.15;15.11;14.84;13.49;10.17;0.85
67098;SPS30;54288;53.046;5.668;2023-05-29T02:05:58;4.55;4.34;3.31;1.93;15.63;15.59;15.33;14.00;10.67;0.85
67098;SPS30;54288;53.046;5.668;2023-05-29T02:08:25;3.93;3.76;2.88;1.71;13.80;13.77;13.55;12.42;9.53;0.85
67098;SPS30;54288;53.046;5.668;2023-05-29T02:10:52;4.12;3.94;3.04;1.82;14.70;14.67;14.44;13.27;10.23;0.84
67098;SPS30;54288;53.046;5.668;2023-05-29T02:13:19;4.09;3.91;3.01;1.79;14.47;14.43;14.20;13.04;10.02;0.83
67098;SPS30;54288;53.046;5.668;2023-05-29T02:15:44;3.95;3.78;2.92;1.75;14.19;14.16;13.94;12.83;9.90;0.83
67098;SPS30;54288;53.046;5.668;2023-05-29T02:18:12;4.45;4.25;3.26;1.94;15.67;15.63;15.38;14.11;10.83;0.84
67098;SPS30;54288;53.046;5.668;2023-05-29T02:20:39;4.37;4.17;3.17;1.83;14.80;14.76;14.51;13.22;10.02;0.85
67098;SPS30;54288;53.046;5.668;2023-05-29T02:23:08;4.23;4.05;3.14;1.92;15.49;15.46;15.22;14.06;10.91;0.80
67098;SPS30;54288;53.046;5.668;2023-05-29T02:25:34;3.84;3.68;2.87;1.78;14.34;14.31;14.10;13.06;10.20;0.80
67098;SPS30;54288;53.046;5.668;2023-05-29T02:28:01;4.05;3.87;3.01;1.83;14.80;14.77;14.54;13.43;10.42;0.78
67098;SPS30;54288;53.046;5.668;2023-05-29T02:30:28;3.90;3.74;2.95;1.86;15.03;15.00;14.79;13.77;10.84;0.77
67098;SPS30;54288;53.046;5.668;2023-05-29T02:32:53;3.72;3.57;2.84;1.83;14.75;14.72;14.53;13.58;10.77;0.77
67098;SPS30;54288;53.046;5.668;2023-05-29T02:35:19;4.20;4.04;3.22;2.10;16.90;16.87;16.66;15.60;12.41;0.77
67098;SPS30;54288;53.046;5.668;2023-05-29T02:37:48;4.20;4.04;3.20;2.05;16.56;16.52;16.31;15.23;12.05;0.80
67098;SPS30;54288;53.046;5.668;2023-05-29T02:40:15;4.27;4.10;3.20;1.97;15.95;15.92;15.68;14.52;11.33;0.83
67098;SPS30;54288;53.046;5.668;2023-05-29T02:42:41;4.56;4.36;3.38;2.05;16.57;16.53;16.28;15.01;11.63;0.85
67098;SPS30;54288;53.046;5.668;2023-05-29T02:45:07;4.67;4.47;3.47;2.10;17.00;16.96;16.70;15.40;11.93;0.84
67098;SPS30;54288;53.046;5.668;2023-05-29T02:47:33;4.13;3.97;3.16;2.04;16.42;16.39;16.18;15.12;11.99;0.81
67098;SPS30;54288;53.046;5.668;2023-05-29T02:49:59;3.93;3.78;3.03;1.98;15.99;15.96;15.76;14.78;11.78;0.80
67098;SPS30;54288;53.046;5.668;2023-05-29T02:52:24;3.75;3.61;2.94;1.99;16.04;16.01;15.84;14.95;12.06;0.78
67098;SPS30;54288;53.046;5.668;2023-05-29T02:54:50;3.72;3.59;2.93;1.99;16.04;16.01;15.84;14.98;12.10;0.77
67098;SPS30;54288;53.046;5.668;2023-05-29T02:57:16;3.58;3.45;2.82;1.93;15.51;15.49;15.32;14.50;11.73;0.77
67098;SPS30;54288;53.046;5.668;2023-05-29T02:59:42;3.79;3.65;2.99;2.05;16.52;16.49;16.32;15.45;12.51;0.76
67098;SPS30;54288;53.046;5.668;2023-05-29T03:02:09;3.94;3.81;3.15;2.21;17.78;17.76;17.59;16.72;13.64;0.74
67098;SPS30;54288;53.046;5.668;2023-05-29T03:04:35;3.18;3.09;2.62;1.93;15.54;15.52;15.39;14.77;12.23;0.72
67098;SPS30;54288;53.046;5.668;2023-05-29T03:07:01;3.35;3.25;2.73;1.98;15.95;15.93;15.80;15.12;12.46;0.71
67098;SPS30;54288;53.046;5.668;2023-05-29T03:09:30;3.38;3.28;2.79;2.06;16.52;16.50;16.37;15.71;13.01;0.71
67098;SPS30;54288;53.046;5.668;2023-05-29T03:11:56;3.87;3.74;3.13;2.23;17.94;17.92;17.76;16.94;13.89;0.72
67098;SPS30;54288;53.046;5.668;2023-05-29T03:14:22;4.07;3.93;3.22;2.23;17.92;17.89;17.71;16.78;13.62;0.74
67098;SPS30;54288;53.046;5.668;2023-05-29T03:16:48;3.79;3.66;2.99;2.05;16.52;16.49;16.32;15.45;12.51;0.74
67098;SPS30;54288;53.046;5.668;2023-05-29T03:19:15;3.87;3.74;3.09;2.16;17.37;17.34;17.17;16.32;13.30;0.72
67098;SPS30;54288;53.046;5.668;2023-05-29T03:21:40;4.05;3.91;3.22;2.23;17.98;17.95;17.77;16.86;13.70;0.73
67098;SPS30;54288;53.046;5.668;2023-05-29T03:24:06;4.21;4.06;3.32;2.28;18.34;18.32;18.12;17.16;13.90;0.73
67098;SPS30;54288;53.046;5.668;2023-05-29T03:26:34;4.27;4.13;3.40;2.36;18.98;18.95;18.76;17.80;14.47;0.71
67098;SPS30;54288;53.046;5.668;2023-05-29T03:29:02;4.08;3.95;3.29;2.34;18.84;18.82;18.65;17.78;14.57;0.71
67098;SPS30;54288;53.046;5.668;2023-05-29T03:31:29;4.02;3.89;3.26;2.34;18.82;18.80;18.63;17.79;14.62;0.70
67098;SPS30;54288;53.046;5.668;2023-05-29T03:33:55;3.73;3.62;3.06;2.25;18.05;18.03;17.89;17.15;14.18;0.69
67098;SPS30;54288;53.046;5.668;2023-05-29T03:36:29;4.01;3.88;3.26;2.36;18.96;18.94;18.78;17.96;14.78;0.71
67098;SPS30;54288;53.046;5.668;2023-05-29T03:38:57;3.83;3.71;3.09;2.21;17.74;17.71;17.55;16.74;13.72;0.71
67098;SPS30;54288;53.046;5.668;2023-05-29T03:41:23;3.67;3.56;2.98;2.14;17.21;17.19;17.03;16.27;13.37;0.69
67098;SPS30;54288;53.046;5.668;2023-05-29T03:43:51;3.77;3.65;3.05;2.19;17.58;17.56;17.40;16.61;13.64;0.69
67098;SPS30;54288;53.046;5.668;2023-05-29T03:46:19;4.12;3.98;3.28;2.30;18.48;18.45;18.27;17.36;14.14;0.72
67098;SPS30;54288;53.046;5.668;2023-05-29T03:48:44;4.36;4.21;3.45;2.39;19.21;19.18;18.98;18.00;14.61;0.73
67098;SPS30;54288;53.046;5.668;2023-05-29T03:51:11;4.26;4.11;3.35;2.28;18.35;18.32;18.12;17.13;13.84;0.73
67098;SPS30;54288;53.046;5.668;2023-05-29T03:53:38;4.03;3.89;3.16;2.14;17.22;17.19;17.00;16.06;12.95;0.73
67098;SPS30;54288;53.046;5.668;2023-05-29T03:56:04;4.07;3.92;3.20;2.17;17.50;17.48;17.29;16.34;13.19;0.72
67098;SPS30;54288;53.046;5.668;2023-05-29T03:58:32;4.08;3.94;3.22;2.21;17.83;17.80;17.62;16.68;13.52;0.73
67098;SPS30;54288;53.046;5.668;2023-05-29T04:00:58;4.23;4.08;3.32;2.26;18.18;18.15;17.96;16.97;13.70;0.74
67098;SPS30;54288;53.046;5.668;2023-05-29T04:03:27;4.25;4.10;3.36;2.31;18.56;18.53;18.34;17.36;14.07;0.74
67098;SPS30;54288;53.046;5.668;2023-05-29T04:05:54;4.24;4.10;3.40;2.40;19.33;19.31;19.12;18.21;14.88;0.72
67098;SPS30;54288;53.046;5.668;2023-05-29T04:08:23;3.81;3.69;3.07;2.18;17.50;17.47;17.31;16.49;13.50;0.72
67098;SPS30;54288;53.046;5.668;2023-05-29T04:11:02;3.67;3.56;3.00;2.18;17.56;17.54;17.39;16.65;13.73;0.69
67098;SPS30;54288;53.046;5.668;2023-05-29T04:13:29;3.80;3.67;3.05;2.16;17.38;17.36;17.19;16.38;13.39;0.72
67098;SPS30;54288;53.046;5.668;2023-05-29T04:15:55;4.02;3.89;3.24;2.30;18.50;18.47;18.30;17.44;14.28;0.72
67098;SPS30;54288;53.046;5.668;2023-05-29T04:18:21;3.83;3.70;3.09;2.21;17.76;17.73;17.57;16.76;13.75;0.73
67098;SPS30;54288;53.046;5.668;2023-05-29T04:20:47;4.11;3.97;3.26;2.27;18.24;18.21;18.03;17.11;13.91;0.75
67098;SPS30;54288;53.046;5.668;2023-05-29T04:23:13;4.04;3.90;3.22;2.25;18.12;18.09;17.91;17.02;13.87;0.73
67098;SPS30;54288;53.046;5.668;2023-05-29T04:25:39;4.53;4.38;3.63;2.56;20.57;20.54;20.35;19.36;15.81;0.72
67098;SPS30;54288;53.046;5.668;2023-05-29T04:28:05;4.18;4.04;3.36;2.38;19.14;19.11;18.93;18.04;14.76;0.71
67098;SPS30;54288;53.046;5.668;2023-05-29T04:30:31;3.93;3.81;3.19;2.30;18.46;18.44;18.27;17.46;14.35;0.71
67098;SPS30;54288;53.046;5.668;2023-05-29T04:32:59;4.00;3.88;3.28;2.41;19.35;19.33;19.17;18.38;15.19;0.68
67098;SPS30;54288;53.046;5.668;2023-05-29T04:35:26;3.71;3.60;3.06;2.25;18.09;18.07;17.93;17.20;14.24;0.69
67098;SPS30;54288;53.046;5.668;2023-05-29T04:38:00;3.64;3.53;3.00;2.22;17.87;17.85;17.71;17.01;14.10;0.68
67098;SPS30;54288;53.046;5.668;2023-05-29T04:40:30;3.86;3.74;3.16;2.31;18.59;18.57;18.41;17.65;14.58;0.70
67098;SPS30;54288;53.046;5.668;2023-05-29T04:42:57;3.85;3.73;3.11;2.23;17.92;17.90;17.73;16.93;13.89;0.72
67098;SPS30;54288;53.046;5.668;2023-05-29T04:45:28;3.83;3.70;3.09;2.21;17.78;17.75;17.59;16.78;13.77;0.71
67098;SPS30;54288;53.046;5.668;2023-05-29T04:47:55;3.58;3.47;2.94;2.16;17.35;17.33;17.19;16.48;13.63;0.70
67098;SPS30;54288;53.046;5.668;2023-05-29T04:50:21;3.52;3.42;2.96;2.26;18.16;18.14;18.02;17.40;14.55;0.67
67098;SPS30;54288;53.046;5.668;2023-05-29T04:52:53;3.46;3.37;2.90;2.21;17.71;17.69;17.57;16.94;14.14;0.66
67098;SPS30;54288;53.046;5.668;2023-05-29T04:55:19;3.29;3.20;2.74;2.05;16.46;16.44;16.32;15.70;13.06;0.68
67098;SPS30;54288;53.046;5.668;2023-05-29T04:57:46;3.28;3.18;2.69;1.98;15.90;15.88;15.75;15.11;12.49;0.71
67098;SPS30;54288;53.046;5.668;2023-05-29T05:00:12;3.15;3.06;2.60;1.92;15.45;15.43;15.31;14.70;12.19;0.70
67098;SPS30;54288;53.046;5.668;2023-05-29T05:02:41;3.56;3.44;2.88;2.07;16.61;16.59;16.44;15.69;12.89;0.71
67098;SPS30;54288;53.046;5.668;2023-05-29T05:05:12;3.81;3.69;3.08;2.20;17.68;17.66;17.50;16.69;13.69;0.71
67098;SPS30;54288;53.046;5.668;2023-05-29T05:07:39;3.84;3.71;3.07;2.16;17.40;17.38;17.21;16.37;13.37;0.72
67098;SPS30;54288;53.046;5.668;2023-05-29T05:10:07;3.60;3.48;2.85;1.97;15.86;15.84;15.67;14.86;12.06;0.74
67098;SPS30;54288;53.046;5.668;2023-05-29T05:12:33;3.83;3.69;2.99;2.01;16.21;16.18;16.00;15.09;12.14;0.75
67098;SPS30;54288;53.046;5.668;2023-05-29T05:15:01;3.81;3.66;2.95;1.96;15.78;15.75;15.57;14.64;11.72;0.78
67098;SPS30;54288;53.046;5.668;2023-05-29T05:17:28;3.99;3.84;3.09;2.04;16.44;16.41;16.22;15.24;12.19;0.77
67098;SPS30;54288;53.046;5.668;2023-05-29T05:19:54;3.93;3.78;3.04;2.00;16.12;16.09;15.90;14.93;11.93;0.78
67098;SPS30;54288;53.046;5.668;2023-05-29T05:22:21;3.62;3.48;2.77;1.80;14.48;14.46;14.27;13.35;10.60;0.78
67098;SPS30;54288;53.046;5.668;2023-05-29T05:24:49;3.71;3.56;2.82;1.81;14.61;14.58;14.39;13.43;10.63;0.79
67098;SPS30;54288;53.046;5.668;2023-05-29T05:27:16;3.61;3.47;2.74;1.75;14.10;14.07;13.89;12.95;10.22;0.81
67098;SPS30;54288;53.046;5.668;2023-05-29T05:29:42;4.21;4.03;3.15;1.94;15.66;15.63;15.40;14.25;11.11;0.83
67098;SPS30;54288;53.046;5.668;2023-05-29T05:32:09;4.29;4.11;3.18;1.92;15.56;15.52;15.28;14.09;10.90;0.84
67098;SPS30;54288;53.046;5.668;2023-05-29T05:34:35;4.63;4.43;3.42;2.05;16.60;16.56;16.30;15.00;11.57;0.85
67098;SPS30;54288;53.046;5.668;2023-05-29T05:37:01;3.98;3.81;2.95;1.79;14.46;14.43;14.20;13.10;10.15;0.84
67098;SPS30;54288;53.046;5.668;2023-05-29T05:39:28;4.24;4.06;3.14;1.89;15.29;15.25;15.01;13.82;10.68;0.85
67098;SPS30;54288;53.046;5.668;2023-05-29T05:41:54;4.36;4.17;3.20;1.90;15.38;15.35;15.10;13.85;10.64;0.86
67098;SPS30;54288;53.046;5.668;2023-05-29T05:44:46;4.33;4.14;3.20;1.94;15.66;15.63;15.39;14.18;10.97;0.84
67098;SPS30;54288;53.046;5.668;2023-05-29T05:47:13;3.77;3.61;2.81;1.73;13.94;13.91;13.71;12.68;9.86;0.83
67098;SPS30;54288;53.046;5.668;2023-05-29T05:49:41;4.24;4.06;3.16;1.93;15.62;15.58;15.35;14.19;11.03;0.82
67098;SPS30;54288;53.046;5.668;2023-05-29T05:52:09;4.16;3.98;3.10;1.89;15.29;15.26;15.03;13.88;10.79;0.85
67098;SPS30;54288;53.046;5.668;2023-05-29T05:54:36;3.97;3.81;2.99;1.87;15.09;15.06;14.85;13.79;10.81;0.83
67098;SPS30;54288;53.046;5.668;2023-05-29T05:57:04;3.98;3.82;3.01;1.91;15.42;15.39;15.18;14.14;11.14;0.83
67098;SPS30;54288;53.046;5.668;2023-05-29T05:59:36;4.09;3.93;3.12;2.00;16.17;16.14;15.93;14.88;11.78;0.82
67098;SPS30;54288;53.046;5.668;2023-05-29T06:02:04;4.05;3.88;3.07;1.96;15.81;15.78;15.57;14.52;11.46;0.81
67098;SPS30;54288;53.046;5.668;2023-05-29T06:04:31;3.59;3.45;2.77;1.83;14.75;14.72;14.55;13.66;10.92;0.80
67098;SPS30;54288;53.046;5.668;2023-05-29T06:06:57;3.87;3.72;2.98;1.96;15.78;15.75;15.56;14.60;11.65;0.81
67098;SPS30;54288;53.046;5.668;2023-05-29T06:09:28;3.72;3.57;2.85;1.86;14.98;14.95;14.76;13.83;11.00;0.80
67098;SPS30;54288;53.046;5.668;2023-05-29T06:11:55;3.58;3.44;2.73;1.74;14.06;14.03;13.85;12.92;10.21;0.82
67098;SPS30;54288;53.046;5.668;2023-05-29T06:14:22;4.31;4.13;3.22;1.99;16.05;16.01;15.78;14.61;11.39;0.84
67098;SPS30;54288;53.046;5.668;2023-05-29T06:16:49;4.33;4.15;3.24;1.99;16.10;16.06;15.83;14.64;11.41;0.85
67098;SPS30;54288;53.046;5.668;2023-05-29T06:19:16;4.59;4.40;3.42;2.08;16.84;16.80;16.55;15.28;11.87;0.85
67098;SPS30;54288;53.046;5.668;2023-05-29T06:21:53;4.27;4.09;3.19;1.97;15.91;15.87;15.64;14.48;11.29;0.84
67098;SPS30;54288;53.046;5.668;2023-05-29T06:24:19;4.41;4.22;3.29;2.03;16.38;16.34;16.10;14.90;11.61;0.85
67098;SPS30;54288;53.046;5.668;2023-05-29T06:26:45;4.20;4.03;3.13;1.92;15.54;15.51;15.28;14.13;11.00;0.84
67098;SPS30;54288;53.046;5.668;2023-05-29T06:29:13;4.69;4.48;3.45;2.07;16.70;16.66;16.40;15.08;11.61;0.85
67098;SPS30;54288;53.046;5.668;2023-05-29T06:31:40;5.38;5.14;3.95;2.34;18.96;18.91;18.61;17.08;13.11;0.84
67098;SPS30;54288;53.046;5.668;2023-05-29T06:34:07;4.75;4.54;3.50;2.10;16.95;16.91;16.64;15.30;11.79;0.83
67098;SPS30;54288;53.046;5.668;2023-05-29T06:36:33;4.50;4.31;3.36;2.07;16.70;16.67;16.42;15.20;11.84;0.83
67098;SPS30;54288;53.046;5.668;2023-05-29T06:39:00;4.47;4.28;3.35;2.09;16.84;16.81;16.57;15.36;12.02;0.82
67098;SPS30;54288;53.046;5.668;2023-05-29T06:41:27;4.29;4.12;3.27;2.09;16.89;16.85;16.63;15.52;12.28;0.81
67098;SPS30;54288;53.046;5.668;2023-05-29T06:43:53;4.22;4.05;3.21;2.04;16.50;16.47;16.25;15.15;11.97;0.81
67098;SPS30;54288;53.046;5.668;2023-05-29T06:46:21;4.95;4.75;3.73;2.35;18.97;18.93;18.67;17.36;13.64;0.82
67098;SPS30;54288;53.046;5.668;2023-05-29T06:48:47;4.60;4.41;3.48;2.19;17.69;17.66;17.41;16.20;12.74;0.81
67098;SPS30;54288;53.046;5.668;2023-05-29T06:51:17;4.88;4.68;3.67;2.28;18.43;18.39;18.13;16.82;13.16;0.81
67098;SPS30;54288;53.046;5.668;2023-05-29T06:54:10;4.92;4.70;3.61;2.14;17.30;17.26;16.98;15.57;11.94;0.86
67098;SPS30;54288;53.046;5.668;2023-05-29T06:56:38;5.33;5.10;3.95;2.38;19.27;19.23;18.93;17.44;13.49;0.83
67098;SPS30;54288;53.046;5.668;2023-05-29T06:59:05;5.42;5.20;4.06;2.51;20.26;20.22;19.92;18.45;14.40;0.81
67098;SPS30;54288;53.046;5.668;2023-05-29T07:01:32;4.81;4.62;3.65;2.33;18.77;18.73;18.48;17.23;13.60;0.82
67098;SPS30;54288;53.046;5.668;2023-05-29T07:04:03;4.61;4.43;3.50;2.22;17.95;17.91;17.67;16.47;12.99;0.81
67098;SPS30;54288;53.046;5.668;2023-05-29T07:06:32;5.16;4.95;3.90;2.46;19.90;19.86;19.59;18.23;14.35;0.81
67098;SPS30;54288;53.046;5.668;2023-05-29T07:09:01;5.41;5.21;4.20;2.78;22.43;22.39;22.13;20.81;16.67;0.80
67098;SPS30;54288;53.046;5.668;2023-05-29T07:11:31;5.91;5.73;4.83;3.51;28.21;28.17;27.94;26.74;22.05;0.74
67098;SPS30;54288;53.046;5.668;2023-05-29T07:14:02;3.85;3.73;3.13;2.26;18.17;18.15;17.99;17.20;14.15;0.74
67098;SPS30;54288;53.046;5.668;2023-05-29T07:16:36;4.30;4.14;3.36;2.26;18.24;18.21;18.01;16.99;13.68;0.77
67098;SPS30;54288;53.046;5.668;2023-05-29T07:19:06;4.45;4.29;3.49;2.36;19.04;19.01;18.80;17.76;14.33;0.76
67098;SPS30;54288;53.046;5.668;2023-05-29T07:21:36;4.49;4.32;3.47;2.29;18.50;18.47;18.25;17.14;13.71;0.77
67098;SPS30;54288;53.046;5.668;2023-05-29T07:24:08;4.88;4.69;3.73;2.40;19.40;19.36;19.11;17.87;14.17;0.80
67098;SPS30;54288;53.046;5.668;2023-05-29T07:26:36;4.91;4.71;3.75;2.43;19.56;19.53;19.28;18.03;14.31;0.81
67098;SPS30;54288;53.046;5.668;2023-05-29T07:29:07;5.22;5.00;3.93;2.47;19.91;19.87;19.59;18.20;14.29;0.83
67098;SPS30;54288;53.046;5.668;2023-05-29T07:31:46;5.22;5.00;3.93;2.46;19.86;19.81;19.54;18.15;14.23;0.83
67098;SPS30;54288;53.046;5.668;2023-05-29T07:34:16;5.15;4.94;3.91;2.48;20.03;19.99;19.72;18.37;14.49;0.82
67098;SPS30;54288;53.046;5.668;2023-05-29T07:37:00;5.19;4.98;3.95;2.54;20.47;20.43;20.16;18.83;14.91;0.82
67098;SPS30;54288;53.046;5.668;2023-05-29T07:45:22;4.57;4.42;3.66;2.59;20.82;20.79;20.59;19.60;16.02;0.75
67098;SPS30;54288;53.046;5.668;2023-05-29T07:49:02;5.15;4.97;4.06;2.78;22.42;22.38;22.14;20.96;16.97;0.74
67098;SPS30;54288;53.046;5.668;2023-05-29T07:52:04;5.27;5.08;4.15;2.83;22.77;22.74;22.49;21.27;17.19;0.76
67098;SPS30;54288;53.046;5.668;2023-05-29T07:54:31;5.22;5.02;4.05;2.69;21.64;21.60;21.35;20.08;16.08;0.77
67098;SPS30;54288;53.046;5.668;2023-05-29T07:56:59;5.48;5.28;4.28;2.87;23.12;23.08;22.82;21.50;17.29;0.76
67098;SPS30;54288;53.046;5.668;2023-05-29T07:59:27;5.16;4.98;4.08;2.79;22.50;22.46;22.23;21.04;17.04;0.74
67098;SPS30;54288;53.046;5.668;2023-05-29T08:01:57;5.08;4.90;4.02;2.78;22.35;22.32;22.09;20.94;16.99;0.75
67098;SPS30;54288;53.046;5.668;2023-05-29T08:04:44;5.57;5.38;4.38;2.99;24.07;24.03;23.77;22.47;18.17;0.76
67098;SPS30;54288;53.046;5.668;2023-05-29T08:08:14;4.84;4.68;3.88;2.74;22.03;22.00;21.79;20.73;16.94;0.74
67098;SPS30;54288;53.046;5.668;2023-05-29T08:16:12;5.14;4.97;4.11;2.88;23.19;23.16;22.93;21.80;17.78;0.72
67098;SPS30;54288;53.046;5.668;2023-05-29T08:19:09;5.00;4.83;4.00;2.81;22.63;22.60;22.38;21.29;17.37;0.72
67098;SPS30;54288;53.046;5.668;2023-05-29T08:21:39;4.39;4.25;3.54;2.53;20.32;20.29;20.11;19.18;15.72;0.72
67098;SPS30;54288;53.046;5.668;2023-05-29T08:29:22;4.63;4.46;3.65;2.51;20.21;20.18;19.97;18.91;15.33;0.77
67098;SPS30;54288;53.046;5.668;2023-05-29T08:32:20;4.84;4.67;3.81;2.59;20.89;20.85;20.63;19.50;15.76;0.76
67098;SPS30;54288;53.046;5.668;2023-05-29T08:34:51;4.96;4.80;3.97;2.78;22.40;22.37;22.15;21.06;17.18;0.76
67098;SPS30;54288;53.046;5.668;2023-05-29T08:38:21;5.46;5.27;4.29;2.92;23.49;23.46;23.20;21.93;17.71;0.79
67098;SPS30;54288;53.046;5.668;2023-05-29T08:40:50;5.64;5.44;4.43;3.02;24.30;24.26;23.99;22.68;18.32;0.78
67098;SPS30;54288;53.046;5.668;2023-05-29T08:45:46;4.95;4.79;3.99;2.83;22.78;22.75;22.54;21.48;17.59;0.75
67098;SPS30;54288;53.046;5.668;2023-05-29T08:48:17;4.75;4.58;3.76;2.59;20.86;20.83;20.62;19.54;15.85;0.76
67098;SPS30;54288;53.046;5.668;2023-05-29T08:50:48;5.33;5.14;4.19;2.85;22.95;22.91;22.66;21.42;17.30;0.78
67098;SPS30;54288;53.046;5.668;2023-05-29T08:53:14;5.08;4.91;4.07;2.87;23.12;23.09;22.87;21.77;17.79;0.76
67098;SPS30;54288;53.046;5.668;2023-05-29T08:55:41;4.29;4.15;3.47;2.49;20.00;19.98;19.80;18.90;15.52;0.74
67098;SPS30;54288;53.046;5.668;2023-05-29T08:58:07;4.10;3.98;3.34;2.41;19.39;19.37;19.20;18.36;15.11;0.72
67098;SPS30;54288;53.046;5.668;2023-05-29T09:00:35;4.56;4.41;3.67;2.61;20.96;20.93;20.74;19.76;16.18;0.74
67098;SPS30;54288;53.046;5.668;2023-05-29T09:03:02;4.68;4.53;3.75;2.63;21.19;21.16;20.96;19.94;16.27;0.76
67098;SPS30;54288;53.046;5.668;2023-05-29T09:05:29;5.15;4.98;4.10;2.86;23.03;22.99;22.77;21.62;17.60;0.78
67098;SPS30;54288;53.046;5.668;2023-05-29T09:07:56;4.41;4.28;3.61;2.63;21.14;21.11;20.94;20.05;16.55;0.75
67098;SPS30;54288;53.046;5.668;2023-05-29T09:10:22;4.76;4.60;3.84;2.73;21.95;21.92;21.72;20.70;16.96;0.76
67098;SPS30;54288;53.046;5.668;2023-05-29T09:12:48;4.90;4.74;3.93;2.77;22.31;22.28;22.07;21.01;17.16;0.75
67098;SPS30;54288;53.046;5.668;2023-05-29T09:15:22;4.29;4.16;3.50;2.55;20.47;20.44;20.27;19.40;16.00;0.73
67098;SPS30;54288;53.046;5.668;2023-05-29T09:17:50;4.59;4.45;3.75;2.72;21.87;21.85;21.66;20.73;17.09;0.72
67098;SPS30;54288;53.046;5.668;2023-05-29T09:20:17;4.34;4.22;3.64;2.76;22.14;22.11;21.96;21.18;17.67;0.70
67098;SPS30;54288;53.046;5.668;2023-05-29T09:22:55;3.86;3.75;3.24;2.46;19.73;19.71;19.57;18.88;15.76;0.71
67098;SPS30;54288;53.046;5.668;2023-05-29T09:25:24;4.36;4.24;3.65;2.76;22.20;22.18;22.02;21.23;17.71;0.70
67098;SPS30;54288;53.046;5.668;2023-05-29T09:27:58;4.80;4.65;3.94;2.90;23.28;23.25;23.06;22.12;18.30;0.71
67098;SPS30;54288;53.046;5.668;2023-05-29T09:30:31;4.53;4.40;3.75;2.78;22.34;22.31;22.14;21.27;17.64;0.71
67098;SPS30;54288;53.046;5.668;2023-05-29T09:33:09;4.56;4.41;3.69;2.65;21.28;21.26;21.07;20.11;16.52;0.75
67098;SPS30;54288;53.046;5.668;2023-05-29T09:35:43;4.27;4.14;3.47;2.50;20.13;20.10;19.92;19.04;15.66;0.73
67098;SPS30;54288;53.046;5.668;2023-05-29T09:38:27;4.44;4.31;3.62;2.62;21.09;21.06;20.88;19.98;16.46;0.73
67098;SPS30;54288;53.046;5.668;2023-05-29T09:47:17;4.84;4.68;3.88;2.73;21.97;21.94;21.73;20.67;16.88;0.73
67098;SPS30;54288;53.046;5.668;2023-05-29T09:52:52;5.05;4.87;3.96;2.68;21.63;21.59;21.36;20.17;16.27;0.78
67098;SPS30;54288;53.046;5.668;2023-05-29T09:55:21;5.53;5.34;4.38;3.03;24.37;24.33;24.08;22.83;18.53;0.75
67098;SPS30;54288;53.046;5.668;2023-05-29T09:57:48;5.10;4.92;4.03;2.77;22.27;22.24;22.00;20.84;16.88;0.75
67098;SPS30;54288;53.046;5.668;2023-05-29T10:00:15;5.38;5.19;4.24;2.89;23.31;23.27;23.02;21.78;17.61;0.76
67098;SPS30;54288;53.046;5.668;2023-05-29T10:02:42;5.53;5.32;4.28;2.84;22.86;22.82;22.55;21.20;16.97;0.78